Portada
METAR-TAF:

METAR-TAF

Aeroports :

Rota, Illes Mariannes, Estats Units d'Amèrica

latitud: 14-11N, longitud: 145-15E, altitud: 185 m

Observació

L'informe es va fer fa 33 minuts, a les 07:50 UTC
Vent 10 kt del Est
Temperatura 27°C
Humitat 84%
Pressió 1009 hPa
Visibilitat: 11.3 km
Escasses núvols a una alçada de 1400 ft

METAR: PGRO 120750Z 08010KT 7SM FEW014 27/24 A2981

Hora: 18:23 (08:23 UTC)

Pronòstic

L'informe es va fer fa 2 hores i 50 minuts, a les 05:33 UTC
Pronòstic vàlid del 12 a les 06 UTC al 13 a les 06 UTC
Vent 11 kt del Est/Sud-Est
Visibilitat: 10 km
Escasses núvols a una alçada de 1600 ft
Núvols disperses a una alçada de 5000 ft
xàfecs en les proximitats

TAF: PGRO 120533Z 1206/1306 11011KT P6SM VCSH FEW016 SCT050

Observacions i pronòstics meteorològics de més de 4000 aeroports (METAR i TAF).

Les estacions disponibles són els punts grocs i vermells al mapa.

Posi el ratolí al punt desitjat per veure el nom de l'estació.

Feu clic per veure les observacions i els pronòstics meteorològics.

Per canviar el mapa: feu clic els botons verds amb una creu de color negre per apropar; al botó verd amb un guió per allunyar la imatge; o en les fletxes verdes per a mapes adjacents.


METAR-TAF: